TimeMST,TemperatureF,Dew PointF,Humidity,Sea Level PressureIn,VisibilityMPH,Wind Direction,Wind SpeedMPH,Gust SpeedMPH,PrecipitationIn,Events,Conditions,WindDirDegrees,DateUTC
12:53 AM,1.0,-5.1,75,30.50,10.0,NE,8.1,-,N/A,,Clear,50,2012-12-20 07:53:00
1:53 AM,1.0,-6.0,72,30.52,10.0,ENE,11.5,-,N/A,,Clear,60,2012-12-20 08:53:00
2:53 AM,1.9,-6.0,69,30.56,10.0,ENE,11.5,-,N/A,,Clear,60,2012-12-20 09:53:00
3:53 AM,-0.9,-8.0,72,30.58,10.0,ENE,6.9,-,N/A,,Clear,60,2012-12-20 10:53:00
4:53 AM,-0.0,-7.1,72,30.59,10.0,Calm,Calm,-,N/A,,Clear,0,2012-12-20 11:53:00
5:53 AM,-0.9,-7.1,75,30.63,10.0,East,3.5,-,N/A,,Clear,100,2012-12-20 12:53:00
6:53 AM,-2.0,-8.0,76,30.69,10.0,NE,5.8,-,N/A,,Clear,50,2012-12-20 13:53:00
7:53 AM,-2.0,-8.0,76,30.72,10.0,ENE,6.9,-,N/A,,Clear,60,2012-12-20 14:53:00
8:53 AM,3.9,-2.9,73,30.73,10.0,East,3.5,-,N/A,,Clear,100,2012-12-20 15:53:00
9:53 AM,12.9,1.0,59,30.70,10.0,East,5.8,-,N/A,,Clear,80,2012-12-20 16:53:00
10:53 AM,18.0,1.9,50,30.68,10.0,Calm,Calm,-,N/A,,Clear,0,2012-12-20 17:53:00
11:53 AM,19.9,-0.0,42,30.65,10.0,Calm,Calm,-,N/A,,Clear,0,2012-12-20 18:53:00
12:53 PM,21.0,3.9,48,30.63,10.0,SSW,3.5,-,N/A,,Clear,210,2012-12-20 19:53:00
1:53 PM,24.1,3.9,42,30.59,10.0,Calm,Calm,-,N/A,,Clear,0,2012-12-20 20:53:00
2:53 PM,25.0,-0.0,34,30.57,10.0,Calm,Calm,-,N/A,,Clear,0,2012-12-20 21:53:00
3:53 PM,24.1,12.0,60,30.60,10.0,SSW,6.9,-,N/A,,Clear,200,2012-12-20 22:53:00
4:53 PM,19.9,10.9,68,30.62,10.0,Calm,Calm,-,N/A,,Clear,0,2012-12-20 23:53:00
5:53 PM,10.9,6.1,81,30.67,10.0,Calm,Calm,-,N/A,,Clear,0,2012-12-21 00:53:00
6:53 PM,10.0,3.0,73,30.68,10.0,ENE,10.4,-,N/A,,Clear,70,2012-12-21 01:53:00
7:53 PM,8.1,1.0,73,30.70,10.0,ENE,8.1,-,N/A,,Clear,70,2012-12-21 02:53:00
8:53 PM,6.1,-0.0,76,30.68,10.0,ENE,6.9,-,N/A,,Clear,60,2012-12-21 03:53:00
9:53 PM,5.0,-0.0,80,30.64,10.0,East,5.8,-,N/A,,Clear,80,2012-12-21 04:53:00
10:53 PM,5.0,-2.0,73,30.62,10.0,ENE,3.5,-,N/A,,Clear,70,2012-12-21 05:53:00
11:53 PM,5.0,-0.0,80,30.60,10.0,East,3.5,20.7,N/A,,Clear,80,2012-12-21 06:53:00